KBIL/BIL METAR and TAF weather

Enter ICAO airport designator
Station Type Date Time Source
KBIL METAR 2022/01/18 06:53 UTC NOAA

KBIL 180653Z 24017G22KT 10SM SCT140 BKN220 07/M06 A2968 RMK AO2 SLP053 T00721061 401390022


Station Type Date Time Source
KBIL Decoded METAR 2022/01/18 06:53 UTC NOAA

LOGAN INTERNATIONAL AIRPORT, MT, United States (KBIL) 45-49N 108-33W 1091M
Jan 18, 2022 - 01:53 AM EST / 2022.01.18 0653 UTC
Wind: from the WSW (240 degrees) at 20 MPH (17 KT) gusting to 25 MPH (22 KT):0
Visibility: 10 mile(s):0
Sky conditions: mostly cloudy
Temperature: 45.0 F (7.2 C)
Dew Point: 21.0 F (-6.1 C)
Relative Humidity: 38%
Pressure (altimeter): 29.68 in. Hg (1005 hPa)
ob: KBIL 180653Z 24017G22KT 10SM SCT140 BKN220 07/M06 A2968 RMK AO2 SLP053 T00721061 401390022
cycle: 7

Station Type Date Time Source
KBIL TAF 2022/01/18 06:22 UTC NOAA

TAF KBIL 180520Z 1806/1906 24015G22KT P6SM SCT100 BKN200
FM181200 35015KT P6SM VCSH BKN060
FM181700 04011KT 4SM -SN BR FEW012 OVC020
FM182100 04011KT 1SM -SN BR BKN010 OVC020

Example: see airport list